Time;durP1;ratioP1;P1;durP2;ratioP2;P2;SDS_P1;SDS_P2;PMS_P1;PMS_P2;Temp;Humidity;BMP_temperature;BMP_pressure;BME280_temperature;BME280_humidity;BME280_pressure;Samples;Min_cycle;Max_cycle;Signal;HPM_P1;HPM_P2
2024/01/27 00:01:26;;;;;;;19.75;12.35;;;6.60;99.90;;;;;;5038764;28;20048;-52
2024/01/27 00:03:53;;;;;;;19.77;12.13;;;6.80;99.90;;;;;;5074346;28;20032;-52
2024/01/27 00:06:19;;;;;;;49.20;21.45;;;7.10;99.90;;;;;;5074016;28;20040;-49
2024/01/27 00:08:45;;;;;;;86.70;34.00;;;;;;;;;;5074282;28;20025;-50
2024/01/27 00:11:11;;;;;;;133.45;47.38;;;7.60;99.90;;;;;;5074319;28;20050;-50
2024/01/27 00:13:38;;;;;;;41.47;19.45;;;;;;;;;;5073826;28;20039;-49
2024/01/27 00:16:04;;;;;;;22.02;14.60;;;;;;;;;;5038445;28;20036;-47
2024/01/27 00:18:30;;;;;;;14.02;8.63;;;;;;;;;;5073758;28;20043;-52
2024/01/27 00:20:56;;;;;;;17.25;8.00;;;;;;;;;;5038525;28;20051;-50
2024/01/27 00:23:22;;;;;;;17.33;9.27;;;;;;;;;;5038110;28;20044;-50
2024/01/27 00:25:48;;;;;;;21.50;12.18;;;;;;;;;;5074176;28;20016;-47
2024/01/27 00:28:14;;;;;;;26.73;12.70;;;6.30;99.90;;;;;;5073668;28;20153;-51
2024/01/27 00:30:40;;;;;;;24.27;12.13;;;;;;;;;;5073475;28;20063;-51
2024/01/27 00:33:06;;;;;;;21.40;12.70;;;;;;;;;;5073518;28;20024;-52
2024/01/27 00:35:32;;;;;;;30.83;15.18;;;;;;;;;;5073440;28;20039;-50
2024/01/27 00:37:58;;;;;;;28.25;15.88;;;;;;;;;;5073604;28;20028;-48
2024/01/27 00:40:24;;;;;;;21.73;14.05;;;;;;;;;;5073426;28;20036;-50
2024/01/27 00:42:51;;;;;;;23.90;15.40;;;;;;;;;;5073708;28;20025;-51
2024/01/27 00:45:17;;;;;;;35.95;21.05;;;;;;;;;;5073686;28;20119;-48
2024/01/27 00:47:44;;;;;;;33.45;21.13;;;;;;;;;;5073089;28;20082;-47
2024/01/27 00:50:11;;;;;;;26.92;17.55;;;;;;;;;;5073620;28;20377;-49
2024/01/27 00:52:36;;;;;;;26.40;17.85;;;8.40;99.90;;;;;;5073159;28;20033;-50
2024/01/27 00:55:03;;;;;;;27.77;15.68;;;8.40;99.90;;;;;;5037738;28;20060;-54
2024/01/27 00:57:29;;;;;;;26.90;15.13;;;8.40;99.90;;;;;;5020753;28;20040;-51
2024/01/27 00:59:54;;;;;;;22.23;13.77;;;8.30;99.90;;;;;;5073029;28;20035;-47
2024/01/27 01:02:20;;;;;;;20.63;13.23;;;8.50;99.90;;;;;;5073610;28;20116;-51
2024/01/27 01:04:46;;;;;;;21.48;13.95;;;8.50;99.90;;;;;;5072997;28;20064;-52
2024/01/27 01:07:11;;;;;;;21.92;13.45;;;8.50;99.90;;;;;;5073090;28;20086;-49
2024/01/27 01:09:37;;;;;;;42.85;29.05;;;8.50;99.90;;;;;;5037124;28;20372;-51
2024/01/27 01:12:03;;;;;;;49.63;30.92;;;8.60;99.90;;;;;;5072951;28;20044;-49
2024/01/27 01:14:29;;;;;;;45.85;29.58;;;8.40;99.90;;;;;;5004427;28;20119;-53
2024/01/27 01:16:55;;;;;;;44.50;28.77;;;8.30;99.90;;;;;;5037135;28;20137;-50
2024/01/27 01:19:20;;;;;;;41.22;26.98;;;8.20;99.90;;;;;;5020923;28;20041;-48
2024/01/27 01:21:46;;;;;;;47.08;29.02;;;8.30;99.90;;;;;;5072445;28;20078;-51
2024/01/27 01:24:12;;;;;;;47.22;28.73;;;8.50;99.90;;;;;;5072724;28;20032;-50
2024/01/27 01:26:37;;;;;;;50.70;30.58;;;8.60;99.90;;;;;;5072620;28;20111;-49
2024/01/27 01:29:03;;;;;;;45.53;26.83;;;8.70;99.90;;;;;;5020603;28;20108;-48
2024/01/27 01:31:29;;;;;;;46.55;28.40;;;8.70;99.90;;;;;;5020604;28;20032;-51
2024/01/27 01:33:55;;;;;;;37.25;24.05;;;8.80;99.90;;;;;;5036718;28;20055;-48
2024/01/27 01:36:21;;;;;;;39.25;23.48;;;8.30;99.90;;;;;;5072480;28;20051;-53
2024/01/27 01:38:47;;;;;;;46.67;26.80;;;8.30;99.90;;;;;;5072123;28;20029;-50
2024/01/27 01:41:13;;;;;;;46.92;27.17;;;;;;;;;;4987710;28;20043;-49
2024/01/27 01:43:38;;;;;;;42.05;25.83;;;8.30;99.90;;;;;;5072343;28;20039;-51
2024/01/27 01:46:05;;;;;;;53.03;30.10;;;8.20;99.90;;;;;;5072316;28;20107;-49
2024/01/27 01:48:30;;;;;;;52.25;32.13;;;8.30;99.90;;;;;;5072234;28;20080;-51
2024/01/27 01:50:57;;;;;;;52.03;32.17;;;8.40;99.90;;;;;;5072243;28;20391;-51
2024/01/27 01:53:23;;;;;;;47.17;30.77;;;8.30;99.90;;;;;;5072346;28;20040;-52
2024/01/27 01:55:50;;;;;;;80.15;48.00;;;8.10;99.90;;;;;;5072098;28;20071;-48
2024/01/27 01:58:16;;;;;;;67.45;40.75;;;8.20;99.90;;;;;;5072339;28;20078;-52
2024/01/27 02:00:42;;;;;;;54.95;32.42;;;8.40;99.90;;;;;;5072126;28;20032;-51
2024/01/27 02:03:12;;;;;;;41.15;24.10;;;8.40;99.90;;;;;;5072028;28;20051;-49
2024/01/27 02:05:38;;;;;;;40.47;24.10;;;;;;;;;;5071831;28;20050;-50
2024/01/27 02:08:05;;;;;;;33.10;18.95;;;7.10;99.90;;;;;;5071760;28;20089;-51
2024/01/27 02:10:36;;;;;;;27.75;19.83;;;;;;;;;;5015776;28;20041;-52
2024/01/27 02:13:03;;;;;;;32.35;19.65;;;;;;;;;;5068560;28;20524;-49
2024/01/27 02:15:29;;;;;;;23.23;13.98;;;;;;;;;;5066500;28;20089;-49
2024/01/27 02:17:55;;;;;;;23.42;13.45;;;;;;;;;;5071513;28;20032;-48
2024/01/27 02:20:21;;;;;;;29.80;18.25;;;;;;;;;;5019675;28;20044;-50
2024/01/27 02:22:47;;;;;;;16.08;10.48;;;;;;;;;;5071390;28;20074;-51
2024/01/27 02:25:14;;;;;;;31.60;17.85;;;;;;;;;;5035914;28;20044;-50
2024/01/27 02:27:39;;;;;;;25.75;17.05;;;6.80;99.90;;;;;;5071595;28;20104;-48
2024/01/27 02:30:06;;;;;;;18.75;12.10;;;7.00;99.90;;;;;;5019207;28;20722;-52
2024/01/27 02:32:31;;;;;;;16.45;9.25;;;7.00;99.90;;;;;;5065068;28;20488;-51
2024/01/27 02:34:57;;;;;;;13.48;8.02;;;7.10;99.90;;;;;;5065051;28;20033;-53
2024/01/27 02:37:23;;;;;;;20.13;9.70;;;6.80;99.90;;;;;;5071459;28;20704;-53
2024/01/27 02:39:48;;;;;;;20.08;10.20;;;7.10;99.90;;;;;;5071336;28;20572;-51
2024/01/27 02:42:14;;;;;;;13.95;7.32;;;7.10;99.90;;;;;;5071188;28;20071;-50
2024/01/27 02:44:40;;;;;;;10.20;5.22;;;7.30;99.90;;;;;;5071169;28;20174;-51
2024/01/27 02:47:05;;;;;;;14.32;7.20;;;7.30;99.90;;;;;;5070970;28;20127;-51
2024/01/27 02:49:31;;;;;;;11.18;6.72;;;7.50;99.90;;;;;;5071639;28;20033;-50
2024/01/27 02:51:57;;;;;;;10.10;5.75;;;7.60;99.90;;;;;;5070961;28;20491;-50
2024/01/27 02:54:23;;;;;;;6.05;3.47;;;7.70;99.90;;;;;;5018823;28;20052;-48
2024/01/27 02:56:48;;;;;;;9.55;5.80;;;7.90;99.90;;;;;;5002501;28;20044;-50
2024/01/27 02:59:15;;;;;;;7.05;4.50;;;7.80;99.90;;;;;;4986107;28;20423;-50
2024/01/27 03:01:41;;;;;;;8.38;4.78;;;;;;;;;;5068625;28;20403;-52
2024/01/27 03:04:06;;;;;;;7.25;4.38;;;8.10;99.90;;;;;;5035077;28;20068;-50
2024/01/27 03:06:32;;;;;;;9.23;4.50;;;8.10;99.90;;;;;;5070941;28;20510;-50
2024/01/27 03:08:58;;;;;;;8.98;4.55;;;8.10;99.90;;;;;;5070831;28;20525;-48
2024/01/27 03:11:24;;;;;;;8.90;4.60;;;8.10;99.90;;;;;;5071000;28;20024;-50
2024/01/27 03:13:50;;;;;;;8.80;4.80;;;8.20;99.90;;;;;;5071004;28;20111;-51
2024/01/27 03:16:17;;;;;;;7.85;4.60;;;8.50;99.90;;;;;;5070917;28;20040;-48
2024/01/27 03:18:43;;;;;;;8.18;4.43;;;8.30;99.90;;;;;;5035853;28;20050;-49
2024/01/27 03:21:09;;;;;;;8.57;5.00;;;8.30;99.90;;;;;;5070558;28;20103;-47
2024/01/27 03:23:36;;;;;;;10.38;5.75;;;8.30;99.90;;;;;;5071074;28;20024;-49
2024/01/27 03:26:03;;;;;;;12.82;6.85;;;8.30;99.90;;;;;;5018674;28;20048;-51
2024/01/27 03:28:30;;;;;;;15.82;10.40;;;8.30;99.90;;;;;;5070728;28;20491;-53
2024/01/27 03:30:55;;;;;;;17.92;12.23;;;8.30;99.90;;;;;;5071022;28;20037;-49
2024/01/27 03:33:22;;;;;;;21.67;14.07;;;8.20;99.90;;;;;;5070689;28;20464;-47
2024/01/27 03:35:48;;;;;;;23.20;13.38;;;8.10;99.90;;;;;;5070618;28;20040;-51
2024/01/27 03:38:14;;;;;;;19.63;12.48;;;8.00;99.90;;;;;;5070483;28;20035;-48
2024/01/27 03:40:40;;;;;;;19.92;12.15;;;7.90;99.90;;;;;;5070643;28;20028;-51
2024/01/27 03:43:05;;;;;;;20.20;12.30;;;7.80;99.90;;;;;;5070450;28;20028;-52
2024/01/27 03:45:31;;;;;;;19.58;11.18;;;7.80;99.90;;;;;;5070553;28;20429;-53
2024/01/27 03:47:57;;;;;;;18.10;10.25;;;7.80;99.90;;;;;;5070693;28;20059;-53
2024/01/27 03:50:23;;;;;;;18.27;11.07;;;7.70;99.90;;;;;;5069882;28;20170;-51
2024/01/27 03:52:48;;;;;;;18.77;11.25;;;7.60;99.90;;;;;;5070600;28;20115;-49
2024/01/27 03:55:14;;;;;;;16.52;9.50;;;7.60;99.90;;;;;;5034515;28;20087;-53
2024/01/27 03:57:40;;;;;;;13.98;10.38;;;7.50;99.90;;;;;;5070349;28;20033;-49
2024/01/27 04:00:06;;;;;;;14.68;8.85;;;7.60;99.90;;;;;;5070650;28;20025;-52
2024/01/27 04:02:32;;;;;;;16.92;8.88;;;7.50;99.90;;;;;;5018501;28;20090;-49
2024/01/27 04:04:58;;;;;;;13.18;8.93;;;7.50;99.90;;;;;;5018314;28;20049;-53
2024/01/27 04:07:23;;;;;;;17.13;8.15;;;7.40;99.90;;;;;;5070167;28;20059;-51
2024/01/27 04:09:49;;;;;;;13.27;7.10;;;7.30;99.90;;;;;;5070703;28;20040;-50
2024/01/27 04:12:15;;;;;;;11.57;6.45;;;7.40;99.90;;;;;;5070139;28;20035;-51
2024/01/27 04:14:41;;;;;;;10.35;6.45;;;7.30;99.90;;;;;;5070166;28;20044;-51
2024/01/27 04:17:06;;;;;;;12.18;5.28;;;7.40;99.90;;;;;;5018371;28;20041;-48
2024/01/27 04:19:32;;;;;;;11.68;4.18;;;7.30;99.90;;;;;;5052831;28;20029;-48
2024/01/27 04:21:57;;;;;;;7.80;4.38;;;7.20;99.90;;;;;;5050398;28;20037;-53
2024/01/27 04:24:23;;;;;;;4.15;2.67;;;7.10;99.90;;;;;;5050076;28;20032;-48
2024/01/27 04:26:49;;;;;;;3.33;2.40;;;7.10;99.90;;;;;;5050134;28;20036;-50
2024/01/27 04:29:15;;;;;;;4.88;2.88;;;7.10;99.90;;;;;;5050452;28;20024;-48
2024/01/27 04:31:41;;;;;;;6.53;3.25;;;7.10;99.90;;;;;;5050259;28;20090;-52
2024/01/27 04:34:07;;;;;;;7.00;4.68;;;7.20;99.90;;;;;;5052163;28;20029;-51
2024/01/27 04:36:33;;;;;;;3.90;2.60;;;7.20;99.90;;;;;;5053434;28;20036;-50
2024/01/27 04:38:59;;;;;;;16.65;4.30;;;7.10;99.90;;;;;;5054918;28;20039;-50
2024/01/27 04:41:25;;;;;;;7.97;3.67;;;;;;;;;;5055394;28;20033;-49
2024/01/27 04:43:52;;;;;;;6.95;3.60;;;7.20;99.90;;;;;;5070192;28;20025;-50
2024/01/27 04:46:18;;;;;;;4.80;3.55;;;7.20;99.90;;;;;;5018489;28;20120;-49
2024/01/27 04:48:44;;;;;;;6.47;2.22;;;7.30;99.90;;;;;;5002066;28;20079;-50
2024/01/27 04:51:10;;;;;;;4.45;2.47;;;7.20;99.90;;;;;;5017974;28;20045;-49
2024/01/27 04:53:35;;;;;;;3.33;2.13;;;7.20;99.90;;;;;;5068971;28;20031;-52
2024/01/27 04:56:01;;;;;;;3.60;2.22;;;7.20;99.90;;;;;;5013382;28;20097;-51
2024/01/27 04:58:27;;;;;;;4.13;2.13;;;7.20;99.90;;;;;;5053101;28;20120;-52
2024/01/27 05:00:53;;;;;;;4.28;2.50;;;7.20;99.90;;;;;;5053199;28;20040;-48
2024/01/27 05:03:18;;;;;;;6.97;2.55;;;7.20;99.90;;;;;;5061479;28;20028;-52
2024/01/27 05:05:44;;;;;;;2.75;1.92;;;7.00;99.90;;;;;;5008805;28;20028;-51
2024/01/27 05:08:10;;;;;;;2.95;1.80;;;7.10;99.90;;;;;;5017654;28;20082;-48
2024/01/27 05:10:36;;;;;;;5.40;2.33;;;;;;;;;;5011186;28;20040;-49
2024/01/27 05:13:03;;;;;;;5.65;2.50;;;;;;;;;;5062544;28;20056;-52
2024/01/27 05:15:29;;;;;;;4.97;2.55;;;7.00;99.90;;;;;;5061178;28;20064;-51
2024/01/27 05:17:55;;;;;;;4.40;2.58;;;;;;;;;;5063259;28;20056;-48
2024/01/27 05:20:21;;;;;;;5.90;2.92;;;;;;;;;;5062696;28;20048;-49
2024/01/27 05:22:47;;;;;;;5.45;2.60;;;;;;;;;;5053684;28;20033;-49
2024/01/27 05:25:13;;;;;;;3.22;1.80;;;;;;;;;;5052931;28;20064;-51
2024/01/27 05:27:39;;;;;;;5.32;3.20;;;;;;;;;;5001407;28;20552;-47
2024/01/27 05:30:09;;;;;;;3.70;2.90;;;7.10;99.90;;;;;;5053038;28;20146;-50
2024/01/27 05:32:35;;;;;;;5.28;2.88;;;;;;;;;;5017109;28;20076;-48
2024/01/27 05:35:01;;;;;;;4.38;2.38;;;;;;;;;;5052531;28;20072;-49
2024/01/27 05:37:27;;;;;;;5.13;2.35;;;;;;;;;;5001373;28;20427;-50
2024/01/27 05:39:53;;;;;;;3.35;1.90;;;;;;;;;;5052372;28;20052;-51
2024/01/27 05:42:19;;;;;;;2.97;1.88;;;;;;;;;;5052468;28;20059;-49
2024/01/27 05:44:45;;;;;;;3.25;1.77;;;;;;;;;;5000558;28;20242;-51
2024/01/27 05:47:11;;;;;;;3.45;2.15;;;7.00;99.90;;;;;;5000748;28;20060;-52
2024/01/27 05:49:37;;;;;;;2.95;1.60;;;6.80;99.90;;;;;;5052164;28;20025;-49
2024/01/27 05:52:03;;;;;;;2.63;1.55;;;6.70;99.90;;;;;;5053034;28;20673;-47
2024/01/27 05:54:29;;;;;;;3.80;2.03;;;6.80;99.90;;;;;;5050261;28;20044;-52
2024/01/27 05:56:54;;;;;;;2.80;2.03;;;6.70;99.90;;;;;;5071975;28;20502;-49
2024/01/27 05:59:21;;;;;;;4.13;1.73;;;6.70;99.90;;;;;;5020165;28;20036;-47
2024/01/27 06:01:47;;;;;;;2.65;1.65;;;6.60;99.90;;;;;;5072063;28;20411;-49
2024/01/27 06:04:12;;;;;;;4.88;2.33;;;6.60;99.90;;;;;;5072357;28;20040;-48
2024/01/27 06:06:39;;;;;;;3.47;1.50;;;6.70;99.90;;;;;;5072024;28;20492;-50
2024/01/27 06:09:05;;;;;;;3.15;1.98;;;6.70;99.90;;;;;;5071872;28;20036;-47
2024/01/27 06:11:31;;;;;;;3.65;1.75;;;6.70;99.90;;;;;;5053329;28;20735;-51
2024/01/27 06:13:58;;;;;;;8.05;2.95;;;6.70;99.90;;;;;;5071909;28;20024;-50
2024/01/27 06:16:24;;;;;;;6.38;3.05;;;6.70;99.90;;;;;;5071842;28;20072;-52
2024/01/27 06:18:50;;;;;;;6.03;2.97;;;6.70;99.90;;;;;;5072173;28;20060;-50
2024/01/27 06:21:15;;;;;;;6.57;3.63;;;6.80;99.90;;;;;;5071786;28;20038;-49
2024/01/27 06:23:41;;;;;;;4.95;3.50;;;6.70;99.90;;;;;;5071915;28;20021;-52
2024/01/27 06:26:08;;;;;;;3.88;2.63;;;6.80;99.90;;;;;;5071132;28;20107;-49
2024/01/27 06:28:34;;;;;;;6.22;2.50;;;6.70;99.90;;;;;;5032625;28;20048;-50
2024/01/27 06:31:01;;;;;;;4.93;2.78;;;6.70;99.90;;;;;;5052244;28;20472;-52
2024/01/27 06:33:27;;;;;;;3.88;2.28;;;;;;;;;;5032629;28;20511;-52
2024/01/27 06:35:52;;;;;;;4.85;2.10;;;6.10;99.90;;;;;;5051614;28;20060;-49
2024/01/27 06:38:18;;;;;;;3.92;2.22;;;6.80;99.90;;;;;;5051515;28;20072;-50
2024/01/27 06:40:44;;;;;;;4.55;2.38;;;;;;;;;;5054759;28;20031;-50
2024/01/27 06:43:12;;;;;;;7.72;3.25;;;9.10;99.90;;;;;;5017367;28;20075;-51
2024/01/27 06:45:38;;;;;;;4.82;2.90;;;10.70;99.90;;;;;;5051479;28;20112;-50
2024/01/27 06:48:05;;;;;;;3.92;2.85;;;;;;;;;;5051076;28;20135;-49
2024/01/27 06:50:31;;;;;;;4.60;3.20;;;;;;;;;;5035334;28;20040;-52
2024/01/27 06:52:57;;;;;;;3.92;3.15;;;;;;;;;;5035582;28;20044;-49
2024/01/27 06:55:23;;;;;;;19.50;9.00;;;15.10;99.90;;;;;;5017430;28;20052;-52
2024/01/27 06:57:48;;;;;;;6.88;2.95;;;15.20;90.50;;;;;;5058570;28;20599;-50
2024/01/27 07:00:15;;;;;;;8.63;4.78;;;;;;;;;;5058999;28;20128;-53
2024/01/27 07:02:41;;;;;;;5.65;3.50;;;;;;;;;;5061491;28;20124;-53
2024/01/27 07:05:08;;;;;;;5.20;3.15;;;;;;;;;;5009262;28;20044;-48
2024/01/27 07:07:34;;;;;;;3.42;2.70;;;17.60;99.90;;;;;;5057944;28;20131;-51
2024/01/27 07:10:00;;;;;;;4.65;2.30;;;;;;;;;;5059695;28;20113;-50
2024/01/27 07:12:26;;;;;;;8.32;4.20;;;;;;;;;;5060510;28;20054;-48
2024/01/27 07:14:54;;;;;;;3.25;2.53;;;18.00;96.30;;;;;;5061095;28;20032;-49
2024/01/27 07:17:20;;;;;;;3.63;2.65;;;;;;;;;;5062568;28;20036;-50
2024/01/27 07:19:46;;;;;;;5.80;2.60;;;;;;;;;;5011956;28;20182;-52
2024/01/27 07:22:12;;;;;;;4.50;2.05;;;;;;;;;;5060026;28;20031;-49
2024/01/27 07:24:38;;;;;;;2.78;2.50;;;17.70;81.00;;;;;;5021901;28;20040;-49
2024/01/27 07:27:04;;;;;;;1.92;1.80;;;18.10;82.40;;;;;;5057248;28;20040;-50
2024/01/27 07:29:30;;;;;;;5.85;2.63;;;17.80;81.60;;;;;;5005902;28;20033;-49
2024/01/27 07:31:56;;;;;;;2.03;1.70;;;18.40;81.20;;;;;;5018304;28;20041;-49
2024/01/27 07:34:22;;;;;;;2.95;2.60;;;18.20;80.90;;;;;;5058100;28;20078;-50
2024/01/27 07:36:50;;;;;;;3.35;2.33;;;17.70;81.30;;;;;;5061003;28;20033;-50
2024/01/27 07:39:16;;;;;;;3.47;2.42;;;19.50;83.20;;;;;;5059995;28;20126;-50
2024/01/27 07:41:42;;;;;;;4.40;2.60;;;;;;;;;;5059177;28;20025;-52
2024/01/27 07:44:12;;;;;;;4.00;3.05;;;;;;;;;;5061116;28;20020;-49
2024/01/27 07:46:39;;;;;;;4.05;3.03;;;;;;;;;;5057115;28;20039;-49
2024/01/27 07:49:06;;;;;;;3.80;3.30;;;18.90;78.40;;;;;;5058684;28;20092;-50
2024/01/27 07:51:33;;;;;;;4.78;3.40;;;19.20;79.00;;;;;;5024926;28;20042;-50
2024/01/27 07:53:59;;;;;;;5.55;3.28;;;19.70;79.10;;;;;;5060265;28;20599;-50
2024/01/27 07:56:26;;;;;;;4.38;3.88;;;18.90;78.20;;;;;;5059509;28;20032;-53
2024/01/27 07:58:51;;;;;;;3.35;2.80;;;18.80;78.50;;;;;;5070452;28;20028;-49
2024/01/27 08:01:18;;;;;;;5.30;3.38;;;18.70;78.80;;;;;;5001856;28;20105;-50
2024/01/27 08:03:43;;;;;;;9.45;8.85;;;19.30;78.50;;;;;;5070613;28;20511;-48
2024/01/27 08:06:17;;;;;;;4.80;4.40;;;19.10;78.20;;;;;;5070291;28;20071;-51
2024/01/27 08:08:50;;;;;;;3.88;3.47;;;17.70;79.40;;;;;;5079547;28;20024;-49
2024/01/27 08:11:17;;;;;;;7.68;7.18;;;18.20;80.90;;;;;;5017448;28;20036;-50
2024/01/27 08:13:43;;;;;;;5.05;4.75;;;18.40;78.70;;;;;;5038447;28;20763;-50
2024/01/27 08:16:15;;;;;;;9.25;8.52;;;18.10;78.50;;;;;;5040922;28;20033;-49
2024/01/27 08:18:45;;;;;;;7.30;6.82;;;18.60;79.10;;;;;;5031747;28;20037;-50
2024/01/27 08:21:14;;;;;;;3.17;2.70;;;;;;;;;;5031759;28;20056;-49
2024/01/27 08:23:40;;;;;;;4.10;3.15;;;17.10;96.90;;;;;;5017526;28;20116;-47
2024/01/27 08:26:06;;;;;;;4.43;4.07;;;17.20;80.20;;;;;;5034701;28;20079;-50
2024/01/27 08:28:32;;;;;;;4.28;3.08;;;16.60;79.40;;;;;;5051403;28;20029;-47
2024/01/27 08:30:59;;;;;;;2.65;2.45;;;17.20;80.00;;;;;;5051386;28;20031;-49
2024/01/27 08:33:25;;;;;;;3.42;3.13;;;18.10;79.50;;;;;;5051296;28;20037;-50
2024/01/27 08:35:51;;;;;;;2.70;2.50;;;18.20;78.60;;;;;;5051081;28;20079;-50
2024/01/27 08:38:17;;;;;;;6.30;5.93;;;17.60;77.50;;;;;;5035623;28;20132;-48
2024/01/27 08:40:43;;;;;;;9.10;8.35;;;18.70;79.60;;;;;;4981906;28;20055;-49
2024/01/27 08:43:10;;;;;;;3.63;3.33;;;18.80;78.40;;;;;;5031348;28;20025;-48
2024/01/27 08:45:39;;;;;;;4.45;2.85;;;17.00;78.10;;;;;;5031077;28;20087;-48
2024/01/27 08:48:06;;;;;;;4.15;2.60;;;17.60;80.00;;;;;;5030948;28;20049;-49
2024/01/27 08:50:32;;;;;;;4.63;4.22;;;;;;;;;;4999836;28;20089;-52
2024/01/27 08:52:58;;;;;;;3.53;3.22;;;19.00;99.90;;;;;;5014498;28;20030;-51
2024/01/27 08:55:24;;;;;;;3.33;2.75;;;;;;;;;;5051246;28;20067;-48
2024/01/27 08:57:50;;;;;;;3.38;3.05;;;20.90;97.00;;;;;;5051250;28;20064;-50
2024/01/27 09:00:17;;;;;;;3.85;3.65;;;;;;;;;;5053276;28;20447;-49
2024/01/27 09:02:43;;;;;;;3.00;2.67;;;;;;;;;;5060748;28;20071;-48
2024/01/27 09:05:09;;;;;;;6.15;5.75;;;20.50;91.90;;;;;;5063542;28;20103;-50
2024/01/27 09:07:35;;;;;;;3.63;1.90;;;;;;;;;;5058798;28;20068;-49
2024/01/27 09:10:02;;;;;;;3.10;2.80;;;;;;;;;;5061934;28;20659;-47
2024/01/27 09:12:27;;;;;;;5.68;3.08;;;17.40;75.50;;;;;;5062040;28;20029;-50
2024/01/27 09:14:56;;;;;;;3.88;3.53;;;16.50;77.60;;;;;;5063451;28;20182;-49
2024/01/27 09:17:22;;;;;;;2.75;1.80;;;17.10;78.60;;;;;;5073234;28;20033;-53
2024/01/27 09:19:48;;;;;;;3.90;3.35;;;16.50;78.40;;;;;;5069326;28;20033;-50
2024/01/27 09:22:13;;;;;;;2.35;0.90;;;15.80;78.70;;;;;;5072950;28;20043;-50
2024/01/27 09:24:40;;;;;;;4.72;3.42;;;15.50;78.60;;;;;;5053761;28;20029;-51
2024/01/27 09:27:06;;;;;;;8.00;7.40;;;16.00;78.60;;;;;;5052755;28;20538;-51
2024/01/27 09:29:31;;;;;;;4.15;1.52;;;17.60;78.60;;;;;;5052638;28;20037;-52
2024/01/27 09:31:58;;;;;;;5.13;3.50;;;16.70;78.70;;;;;;5052992;28;20040;-49
2024/01/27 09:34:23;;;;;;;10.07;9.30;;;15.90;78.40;;;;;;5052533;28;20037;-48
2024/01/27 09:36:49;;;;;;;5.88;5.40;;;17.30;79.50;;;;;;5054107;28;20029;-49
2024/01/27 09:39:15;;;;;;;5.32;4.82;;;17.90;78.30;;;;;;5004466;28;20574;-49
2024/01/27 09:41:42;;;;;;;4.28;3.97;;;17.60;77.10;;;;;;5000849;28;20040;-49
2024/01/27 09:44:07;;;;;;;5.20;3.05;;;18.00;77.70;;;;;;5052621;28;20035;-47
2024/01/27 09:46:33;;;;;;;5.53;3.88;;;17.50;75.90;;;;;;5052340;28;20041;-50
2024/01/27 09:49:00;;;;;;;5.05;4.68;;;17.00;77.30;;;;;;5033366;28;20499;-50
2024/01/27 09:51:26;;;;;;;9.85;9.32;;;16.50;77.20;;;;;;5052352;28;20090;-47
2024/01/27 09:53:53;;;;;;;8.10;4.45;;;17.10;77.90;;;;;;5052416;28;20040;-48
2024/01/27 09:56:20;;;;;;;4.40;4.00;;;;;;;;;;4990339;28;20078;-48
2024/01/27 09:58:46;;;;;;;4.35;4.05;;;18.10;87.10;;;;;;4990181;28;20047;-50
2024/01/27 10:01:12;;;;;;;5.10;4.60;;;17.30;75.60;;;;;;4990624;28;20073;-50
2024/01/27 10:03:45;;;;;;;5.03;3.22;;;17.60;76.20;;;;;;5000809;28;20041;-49
2024/01/27 10:06:11;;;;;;;7.15;3.15;;;18.40;77.40;;;;;;4990334;28;20053;-51
2024/01/27 10:08:37;;;;;;;3.38;3.08;;;;;;;;;;4973967;28;20045;-50
2024/01/27 10:11:08;;;;;;;4.93;2.92;;;17.10;74.70;;;;;;5009722;28;20038;-48
2024/01/27 10:13:36;;;;;;;2.53;1.58;;;17.50;75.80;;;;;;5009859;28;20076;-47
2024/01/27 10:16:06;;;;;;;6.18;5.88;;;16.10;76.40;;;;;;5009454;28;20053;-53
2024/01/27 10:18:33;;;;;;;2.13;1.92;;;16.40;77.20;;;;;;5003502;28;20034;-50
2024/01/27 10:20:59;;;;;;;5.75;5.25;;;;;;;;;;4999019;28;20736;-48
2024/01/27 10:23:25;;;;;;;5.25;4.60;;;;;;;;;;4990019;28;20092;-48
2024/01/27 10:25:52;;;;;;;12.90;12.18;;;;;;;;;;4985268;28;20089;-52
2024/01/27 10:28:18;;;;;;;3.33;3.03;;;;;;;;;;5053497;28;20040;-47
2024/01/27 10:30:45;;;;;;;6.00;3.30;;;;;;;;;;5045715;28;20044;-50
2024/01/27 10:33:15;;;;;;;7.15;3.38;;;;;;;;;;5057536;28;20065;-51
2024/01/27 10:35:41;;;;;;;8.60;5.38;;;;;;;;;;5065293;28;20048;-49
2024/01/27 10:38:07;;;;;;;7.15;4.70;;;16.10;79.10;;;;;;5071372;28;20425;-49
2024/01/27 10:40:53;;;;;;;6.88;6.38;;;16.80;79.10;;;;;;5048519;28;20041;-47
2024/01/27 10:43:19;;;;;;;6.78;2.80;;;17.00;77.60;;;;;;5048824;28;20045;-49
2024/01/27 10:45:45;;;;;;;4.03;2.70;;;15.70;78.00;;;;;;5048746;28;20044;-48
2024/01/27 10:48:11;;;;;;;3.25;2.97;;;15.40;78.40;;;;;;5048508;28;20624;-48
2024/01/27 10:50:38;;;;;;;1.88;1.75;;;14.70;78.80;;;;;;5048705;28;20041;-51
2024/01/27 10:53:09;;;;;;;3.70;3.30;;;14.60;78.90;;;;;;5028165;28;20607;-51
2024/01/27 10:55:36;;;;;;;5.60;2.88;;;15.00;79.10;;;;;;5027737;28;20045;-50
2024/01/27 10:58:03;;;;;;;2.85;2.53;;;;;;;;;;5033744;28;20040;-50
2024/01/27 11:00:32;;;;;;;5.18;2.85;;;14.60;79.20;;;;;;5047539;28;20048;-51
2024/01/27 11:03:00;;;;;;;3.08;2.50;;;14.90;79.90;;;;;;5047414;28;20123;-51
2024/01/27 11:05:28;;;;;;;2.45;1.60;;;15.00;80.00;;;;;;5013664;28;20047;-50
2024/01/27 11:07:54;;;;;;;8.13;3.90;;;14.50;80.10;;;;;;5047310;28;20044;-48
2024/01/27 11:10:20;;;;;;;15.38;6.50;;;15.10;80.60;;;;;;5047461;28;20037;-49
2024/01/27 11:12:48;;;;;;;2.70;2.17;;;14.90;79.60;;;;;;5048147;28;20566;-51
2024/01/27 11:15:14;;;;;;;3.67;1.80;;;14.30;80.00;;;;;;5067117;28;20489;-51
2024/01/27 11:17:44;;;;;;;2.03;1.52;;;13.80;80.60;;;;;;5017826;28;20040;-47
2024/01/27 11:20:16;;;;;;;9.65;3.88;;;13.80;80.80;;;;;;5069938;28;20085;-51
2024/01/27 11:22:43;;;;;;;6.43;2.88;;;14.60;81.50;;;;;;5069863;28;20033;-49
2024/01/27 11:25:12;;;;;;;2.30;1.60;;;14.10;80.10;;;;;;5017862;28;20068;-50
2024/01/27 11:27:43;;;;;;;3.42;2.45;;;13.80;80.80;;;;;;5069103;28;20560;-51
2024/01/27 11:30:30;;;;;;;7.20;2.70;;;14.20;81.10;;;;;;5065813;28;20567;-52
2024/01/27 11:32:57;;;;;;;3.20;1.85;;;14.30;81.50;;;;;;5069620;28;20444;-49
2024/01/27 11:35:26;;;;;;;2.97;2.22;;;14.00;80.90;;;;;;5069608;28;20041;-52
2024/01/27 11:37:54;;;;;;;2.03;1.70;;;;;;;;;;5069525;28;20067;-49
2024/01/27 11:40:21;;;;;;;1.90;1.50;;;;;;;;;;5070158;28;20033;-49
2024/01/27 11:43:05;;;;;;;2.88;1.30;;;;;;;;;;5019489;28;20106;-50
2024/01/27 11:45:32;;;;;;;2.08;1.67;;;;;;;;;;5074039;28;20029;-49
2024/01/27 11:47:58;;;;;;;2.35;1.85;;;;;;;;;;5067953;28;20060;-48
2024/01/27 11:50:24;;;;;;;1.70;1.60;;;;;;;;;;5073647;28;20082;-50
2024/01/27 11:52:50;;;;;;;1.67;1.48;;;;;;;;;;5020918;28;20047;-50
2024/01/27 11:55:18;;;;;;;3.22;1.75;;;;;;;;;;5061411;28;20040;-49
2024/01/27 11:57:45;;;;;;;3.10;1.88;;;;;;;;;;5070148;28;20424;-45
2024/01/27 12:00:11;;;;;;;3.97;1.95;;;;;;;;;;5073557;28;20111;-49
2024/01/27 12:02:41;;;;;;;2.42;1.40;;;;;;;;;;5073516;28;20054;-51
2024/01/27 12:05:09;;;;;;;7.70;2.65;;;;;;;;;;5037697;28;20067;-49
2024/01/27 12:07:35;;;;;;;1.75;1.45;;;;;;;;;;5037587;28;20132;-50
2024/01/27 12:10:01;;;;;;;3.75;1.90;;;;;;;;;;5073606;28;20028;-47
2024/01/27 12:12:27;;;;;;;1.55;1.40;;;13.50;78.10;;;;;;5020744;28;20053;-48
2024/01/27 12:14:53;;;;;;;1.55;1.27;;;13.80;79.10;;;;;;5073340;28;20043;-50
2024/01/27 12:17:20;;;;;;;1.88;1.00;;;14.00;80.20;;;;;;5073178;28;20020;-47
2024/01/27 12:19:51;;;;;;;1.58;0.93;;;13.80;79.80;;;;;;5063228;28;20040;-48
2024/01/27 12:22:37;;;;;;;1.05;0.95;;;;;;;;;;5053108;28;20044;-50
2024/01/27 12:25:11;;;;;;;1.35;1.02;;;13.50;79.50;;;;;;5018199;28;20125;-50
2024/01/27 12:27:39;;;;;;;2.83;1.42;;;13.10;79.50;;;;;;5034409;28;20051;-47
2024/01/27 12:30:05;;;;;;;2.25;1.40;;;13.20;80.20;;;;;;5053522;28;20033;-51
2024/01/27 12:32:31;;;;;;;2.17;0.90;;;13.00;81.10;;;;;;5017362;28;20048;-51
2024/01/27 12:35:00;;;;;;;1.45;1.00;;;13.10;81.10;;;;;;5052890;28;20076;-51
2024/01/27 12:37:26;;;;;;;1.77;0.98;;;;;;;;;;5050040;28;20072;-49
2024/01/27 12:39:52;;;;;;;0.95;0.60;;;;;;;;;;5052847;28;20052;-50
2024/01/27 12:42:18;;;;;;;1.75;0.80;;;12.30;99.90;;;;;;5052696;28;20033;-50
2024/01/27 12:44:44;;;;;;;1.98;0.85;;;12.40;80.10;;;;;;5052677;28;20039;-50
2024/01/27 12:47:10;;;;;;;3.72;1.13;;;12.30;80.40;;;;;;5054904;28;20179;-50
2024/01/27 12:49:36;;;;;;;2.13;0.80;;;12.10;79.70;;;;;;5060935;28;20036;-49
2024/01/27 12:52:02;;;;;;;1.88;1.38;;;12.10;80.60;;;;;;5059933;28;20056;-47
2024/01/27 12:54:28;;;;;;;3.50;0.80;;;12.20;80.80;;;;;;5051321;28;20041;-48
2024/01/27 12:56:56;;;;;;;1.20;0.90;;;11.90;80.70;;;;;;5021740;28;20048;-48
2024/01/27 12:59:21;;;;;;;1.02;0.68;;;12.00;80.50;;;;;;5052388;28;20029;-47
2024/01/27 13:01:47;;;;;;;2.92;0.82;;;;;;;;;;5052532;28;20036;-53
2024/01/27 13:04:14;;;;;;;3.90;1.42;;;11.60;80.60;;;;;;5052570;28;20072;-51
2024/01/27 13:06:40;;;;;;;2.60;0.90;;;11.80;82.10;;;;;;5052205;28;20037;-47
2024/01/27 13:09:07;;;;;;;1.58;0.73;;;11.70;81.70;;;;;;5052364;28;20128;-52
2024/01/27 13:11:33;;;;;;;3.85;0.80;;;11.80;82.00;;;;;;5052395;28;20471;-48